createdAt,value
2022-08-27T00:01:45.386Z,21.36
2022-08-27T00:04:15.633Z,21.47
2022-08-27T00:06:46.392Z,21.57
2022-08-27T00:09:16.719Z,21.64
2022-08-27T00:11:57.645Z,21.69
2022-08-27T00:14:28.926Z,21.67
2022-08-27T00:17:01.802Z,21.71
2022-08-27T00:19:32.126Z,21.70
2022-08-27T00:22:02.418Z,21.73
2022-08-27T00:24:32.663Z,21.77
2022-08-27T00:27:03.068Z,21.84
2022-08-27T00:29:33.372Z,21.92
2022-08-27T00:32:08.049Z,21.93
2022-08-27T00:34:38.346Z,21.88
2022-08-27T00:37:09.463Z,21.89
2022-08-27T00:39:39.864Z,21.84
2022-08-27T00:42:10.764Z,21.91
2022-08-27T00:44:41.333Z,21.89
2022-08-27T00:47:19.815Z,21.82
2022-08-27T00:49:56.577Z,21.80
2022-08-27T00:52:32.069Z,21.80
2022-08-27T00:55:08.030Z,21.81
2022-08-27T00:57:41.736Z,21.89
2022-08-27T01:00:19.053Z,21.95
2022-08-27T01:02:52.174Z,21.96
2022-08-27T01:05:26.605Z,21.94
2022-08-27T01:08:06.567Z,21.91
2022-08-27T01:10:37.644Z,21.90
2022-08-27T01:13:10.772Z,21.83
2022-08-27T01:15:44.842Z,21.88
2022-08-27T01:18:19.477Z,21.81
2022-08-27T01:21:05.152Z,21.82
2022-08-27T01:23:41.389Z,21.91
2022-08-27T01:26:18.045Z,21.87
2022-08-27T01:28:49.143Z,21.78
2022-08-27T01:31:19.508Z,21.87
2022-08-27T01:33:59.053Z,21.87
2022-08-27T01:36:29.511Z,21.81
2022-08-27T01:38:59.799Z,21.84
2022-08-27T01:41:33.396Z,21.97
2022-08-27T01:44:04.143Z,22.04
2022-08-27T01:46:34.479Z,22.09
2022-08-27T01:49:04.733Z,22.13
2022-08-27T01:51:34.953Z,22.13
2022-08-27T01:54:05.343Z,22.18
2022-08-27T01:56:38.158Z,22.16
2022-08-27T01:59:08.455Z,22.09
2022-08-27T02:01:39.556Z,22.15
2022-08-27T02:04:09.797Z,22.21
2022-08-27T02:06:40.187Z,22.24
2022-08-27T02:09:10.361Z,22.23
2022-08-27T02:11:44.841Z,22.22
2022-08-27T02:14:15.625Z,22.17
2022-08-27T02:16:46.351Z,22.19
2022-08-27T02:19:24.428Z,22.23
2022-08-27T02:21:54.713Z,22.25
2022-08-27T02:24:24.936Z,22.27
2022-08-27T02:26:58.528Z,22.32
2022-08-27T02:29:29.291Z,22.32
2022-08-27T02:32:00.074Z,22.38
2022-08-27T02:34:30.512Z,22.38
2022-08-27T02:37:00.699Z,22.37
2022-08-27T02:39:30.935Z,22.35
2022-08-27T02:42:04.102Z,22.37
2022-08-27T02:44:35.718Z,22.29
2022-08-27T02:47:06.110Z,22.33
2022-08-27T02:49:37.012Z,22.23
2022-08-27T02:52:07.655Z,22.28
2022-08-27T02:54:37.709Z,22.32
2022-08-27T02:57:12.421Z,22.35
2022-08-27T02:59:42.664Z,22.35
2022-08-27T03:02:12.986Z,22.34
2022-08-27T03:04:43.819Z,22.36
2022-08-27T03:07:18.661Z,22.34
2022-08-27T03:09:49.287Z,22.29
2022-08-27T03:12:22.754Z,22.24
2022-08-27T03:14:55.096Z,22.21
2022-08-27T03:17:37.784Z,22.12
2022-08-27T03:20:11.268Z,21.88
2022-08-27T03:22:42.346Z,21.81
2022-08-27T03:25:13.068Z,21.74
2022-08-27T03:27:46.127Z,21.63
2022-08-27T03:30:21.201Z,21.52
2022-08-27T03:32:52.019Z,21.50
2022-08-27T03:35:24.104Z,21.47
2022-08-27T03:37:54.465Z,21.54
2022-08-27T03:40:24.844Z,21.54
2022-08-27T03:42:57.724Z,21.57
2022-08-27T03:45:28.050Z,21.53
2022-08-27T03:47:58.301Z,21.51
2022-08-27T03:50:29.018Z,21.58
2022-08-27T03:52:59.194Z,21.69
2022-08-27T03:55:29.602Z,21.76
2022-08-27T03:58:02.432Z,21.83
2022-08-27T04:00:32.898Z,21.94
2022-08-27T04:03:03.275Z,22.01
2022-08-27T04:05:33.544Z,22.00
2022-08-27T04:08:04.053Z,21.98
2022-08-27T04:10:34.946Z,22.07
2022-08-27T04:13:07.947Z,22.08
2022-08-27T04:15:40.473Z,22.08
2022-08-27T04:18:12.201Z,22.08
2022-08-27T04:20:42.584Z,22.07
2022-08-27T04:23:12.909Z,22.04
2022-08-27T04:25:43.819Z,22.07
2022-08-27T04:28:18.458Z,21.97
2022-08-27T04:30:49.953Z,21.94
2022-08-27T04:33:20.546Z,21.95
2022-08-27T04:35:50.751Z,22.01
2022-08-27T04:38:21.332Z,22.12
2022-08-27T04:41:03.653Z,22.12
2022-08-27T04:43:36.512Z,22.13
2022-08-27T04:46:07.184Z,22.11
2022-08-27T04:48:38.531Z,22.06
2022-08-27T04:51:09.339Z,22.01
2022-08-27T04:53:42.688Z,21.89
2022-08-27T04:56:18.010Z,21.87
2022-08-27T04:58:51.034Z,21.85
2022-08-27T05:01:23.598Z,21.84
2022-08-27T05:03:54.581Z,21.84
2022-08-27T05:06:25.987Z,21.88
2022-08-27T05:08:57.642Z,21.88
2022-08-27T05:11:34.575Z,21.89
2022-08-27T05:14:10.479Z,21.92
2022-08-27T05:16:41.569Z,21.92
2022-08-27T05:19:14.766Z,21.79
2022-08-27T05:21:49.935Z,21.85
2022-08-27T05:24:21.450Z,21.86
2022-08-27T05:26:52.832Z,21.87
2022-08-27T05:29:25.674Z,21.89
2022-08-27T05:31:56.551Z,21.89
2022-08-27T05:34:27.685Z,21.89
2022-08-27T05:36:58.033Z,21.89
2022-08-27T05:39:28.287Z,21.88
2022-08-27T05:41:59.873Z,21.88
2022-08-27T05:44:41.303Z,21.88
2022-08-27T05:47:12.994Z,21.86
2022-08-27T05:49:43.198Z,21.90
2022-08-27T05:52:14.679Z,22.02
2022-08-27T05:54:44.932Z,22.03
2022-08-27T05:57:15.299Z,21.97
2022-08-27T06:00:00.550Z,21.95
2022-08-27T06:02:31.227Z,21.94
2022-08-27T06:05:01.461Z,22.06
2022-08-27T06:07:31.694Z,22.10
2022-08-27T06:10:03.628Z,22.10
2022-08-27T06:12:34.365Z,22.10
2022-08-27T06:15:08.808Z,22.16
2022-08-27T06:17:39.460Z,22.15
2022-08-27T06:20:10.960Z,22.20
2022-08-27T06:22:41.193Z,22.14
2022-08-27T06:25:12.297Z,22.16
2022-08-27T06:27:42.635Z,22.13
2022-08-27T06:30:17.632Z,22.13
2022-08-27T06:32:47.998Z,22.10
2022-08-27T06:35:18.367Z,22.01
2022-08-27T06:37:48.624Z,21.96
2022-08-27T06:40:19.130Z,22.00
2022-08-27T06:42:49.157Z,22.02
2022-08-27T06:45:22.261Z,21.97
2022-08-27T06:47:52.495Z,22.02
2022-08-27T06:50:27.115Z,22.07
2022-08-27T06:52:57.560Z,22.05
2022-08-27T06:55:27.787Z,22.03
2022-08-27T06:57:58.009Z,22.02
2022-08-27T07:00:30.900Z,22.08
2022-08-27T07:03:01.744Z,22.08
2022-08-27T07:05:32.117Z,22.04
2022-08-27T07:08:02.829Z,22.02
2022-08-27T07:10:35.077Z,22.00
2022-08-27T07:13:05.278Z,21.98
2022-08-27T07:15:41.954Z,21.94
2022-08-27T07:18:12.383Z,21.88
2022-08-27T07:20:44.047Z,21.78
2022-08-27T07:23:14.834Z,21.77
2022-08-27T07:25:45.493Z,21.81
2022-08-27T07:28:15.437Z,21.89
2022-08-27T07:30:48.329Z,21.89
2022-08-27T07:33:18.701Z,21.97
2022-08-27T07:35:49.664Z,21.95
2022-08-27T07:38:19.991Z,21.96
2022-08-27T07:40:52.442Z,22.00
2022-08-27T07:43:35.701Z,22.01
2022-08-27T07:46:09.085Z,21.97
2022-08-27T07:48:39.342Z,21.97
2022-08-27T07:51:17.413Z,21.96
2022-08-27T07:53:48.461Z,21.95
2022-08-27T07:56:19.512Z,21.91
2022-08-27T07:58:49.695Z,21.89
2022-08-27T08:01:24.151Z,21.84
2022-08-27T08:03:54.453Z,21.88
2022-08-27T08:06:25.010Z,21.81
2022-08-27T08:08:55.048Z,21.83
2022-08-27T08:11:25.293Z,21.82
2022-08-27T08:13:55.548Z,21.81
2022-08-27T08:16:31.801Z,21.81
2022-08-27T08:19:03.066Z,21.82
2022-08-27T08:21:33.332Z,21.87
2022-08-27T08:24:03.597Z,21.89
2022-08-27T08:26:34.100Z,21.88
2022-08-27T08:29:05.062Z,21.87
2022-08-27T08:31:37.953Z,21.91
2022-08-27T08:34:08.190Z,21.87
2022-08-27T08:36:38.485Z,21.90
2022-08-27T08:39:08.776Z,21.86
2022-08-27T08:41:47.205Z,21.85
2022-08-27T08:44:35.623Z,21.93
2022-08-27T08:47:14.019Z,22.02
2022-08-27T08:49:54.811Z,22.01
2022-08-27T08:52:40.361Z,21.94
2022-08-27T08:55:36.050Z,21.98
2022-08-27T08:58:18.189Z,22.00
2022-08-27T09:00:54.623Z,21.96
2022-08-27T09:03:28.097Z,22.00
2022-08-27T09:06:05.725Z,22.01
2022-08-27T09:08:41.808Z,21.89
2022-08-27T09:11:24.271Z,22.01
2022-08-27T09:13:59.758Z,21.97
2022-08-27T09:16:30.298Z,21.93
2022-08-27T09:19:06.105Z,21.92
2022-08-27T09:21:51.518Z,21.85
2022-08-27T09:24:33.697Z,21.81
2022-08-27T09:27:03.961Z,21.75
2022-08-27T09:29:34.272Z,21.75
2022-08-27T09:32:10.697Z,21.73
2022-08-27T09:34:46.665Z,21.72
2022-08-27T09:37:20.828Z,21.74
2022-08-27T09:39:54.913Z,21.79
2022-08-27T09:42:32.807Z,21.88
2022-08-27T09:45:03.269Z,21.89
2022-08-27T09:47:33.700Z,21.95
2022-08-27T09:50:11.065Z,22.10
2022-08-27T09:52:55.091Z,22.14
2022-08-27T09:55:41.667Z,22.19
2022-08-27T09:58:22.701Z,22.28
2022-08-27T10:01:04.063Z,22.31
2022-08-27T10:03:34.844Z,22.42
2022-08-27T10:06:08.829Z,22.56
2022-08-27T10:08:45.713Z,22.64
2022-08-27T10:11:23.064Z,22.81
2022-08-27T10:14:01.657Z,22.92
2022-08-27T10:16:58.577Z,23.10
2022-08-27T10:19:49.952Z,23.12
2022-08-27T10:22:39.083Z,23.05
2022-08-27T10:25:20.328Z,23.01
2022-08-27T10:28:02.002Z,23.07
2022-08-27T10:30:49.041Z,23.08
2022-08-27T10:33:29.494Z,23.10
2022-08-27T10:36:14.034Z,23.00
2022-08-27T10:38:56.377Z,22.93
2022-08-27T10:41:35.026Z,22.96
2022-08-27T10:44:32.329Z,23.03
2022-08-27T10:47:23.467Z,23.08
2022-08-27T10:50:06.465Z,23.07
2022-08-27T10:52:44.965Z,23.04
2022-08-27T10:55:27.655Z,22.97
2022-08-27T10:58:27.268Z,22.94
2022-08-27T11:01:05.164Z,22.96
2022-08-27T11:03:45.080Z,23.11
2022-08-27T11:06:25.736Z,23.27
2022-08-27T11:09:07.538Z,23.51
2022-08-27T11:14:41.692Z,23.86
2022-08-27T11:17:19.248Z,23.76
2022-08-27T11:19:57.698Z,23.84
2022-08-27T11:22:37.091Z,23.89
2022-08-27T11:25:23.317Z,23.96
2022-08-27T11:27:58.187Z,24.06
2022-08-27T11:30:42.234Z,24.21
2022-08-27T11:33:21.761Z,24.11
2022-08-27T11:36:16.546Z,24.18
2022-08-27T11:38:57.934Z,24.25
2022-08-27T11:42:05.317Z,24.23
2022-08-27T11:44:44.484Z,24.07
2022-08-27T11:47:18.476Z,23.98
2022-08-27T11:49:52.862Z,23.90
2022-08-27T11:52:30.025Z,23.92
2022-08-27T11:55:17.449Z,24.04
2022-08-27T11:57:48.008Z,23.96
2022-08-27T12:00:25.449Z,23.87
2022-08-27T12:03:03.975Z,23.67
2022-08-27T12:05:45.052Z,23.58
2022-08-27T12:08:30.905Z,23.53
2022-08-27T12:11:23.582Z,23.50
2022-08-27T12:14:04.524Z,23.54
2022-08-27T12:16:48.664Z,23.63
2022-08-27T12:19:34.111Z,23.68
2022-08-27T12:22:26.479Z,23.65
2022-08-27T12:24:59.990Z,23.63
2022-08-27T12:27:37.362Z,23.50
2022-08-27T12:30:25.676Z,23.37
2022-08-27T12:33:01.335Z,23.16
2022-08-27T12:35:40.624Z,23.05
2022-08-27T12:38:18.837Z,22.85
2022-08-27T12:40:53.726Z,22.72
2022-08-27T12:43:27.784Z,22.55
2022-08-27T12:46:04.090Z,22.51
2022-08-27T12:48:43.860Z,22.41
2022-08-27T12:51:19.564Z,22.40
2022-08-27T12:53:55.683Z,22.36
2022-08-27T12:56:55.440Z,22.26
2022-08-27T13:00:02.326Z,22.24
2022-08-27T13:03:14.683Z,22.15
2022-08-27T13:05:50.900Z,22.17
2022-08-27T13:08:26.672Z,22.22
2022-08-27T13:10:57.915Z,22.19
2022-08-27T13:13:28.569Z,22.12
2022-08-27T13:16:01.018Z,22.12
2022-08-27T13:18:31.662Z,22.22
2022-08-27T13:21:12.067Z,22.25
2022-08-27T13:23:48.502Z,22.30
2022-08-27T13:26:25.736Z,22.29
2022-08-27T13:29:02.646Z,22.30
2022-08-27T13:31:35.902Z,22.20
2022-08-27T13:34:08.866Z,22.24
2022-08-27T13:36:59.756Z,22.22
2022-08-27T13:39:31.036Z,22.26
2022-08-27T13:42:03.202Z,22.28
2022-08-27T13:44:37.566Z,22.31
2022-08-27T13:47:11.673Z,22.42
2022-08-27T13:49:41.987Z,22.50
2022-08-27T13:52:27.294Z,22.52
2022-08-27T13:55:05.958Z,22.50
2022-08-27T13:57:45.837Z,22.49
2022-08-27T14:00:21.876Z,22.51
2022-08-27T14:02:56.287Z,22.63
2022-08-27T14:05:36.987Z,22.81
2022-08-27T14:08:20.077Z,23.08
2022-08-27T14:10:53.679Z,23.15
2022-08-27T14:13:28.922Z,23.16
2022-08-27T14:16:01.526Z,23.12
2022-08-27T14:18:58.290Z,23.09
2022-08-27T14:21:26.177Z,23.09
2022-08-27T14:23:59.305Z,23.12
2022-08-27T14:26:29.713Z,23.36
2022-08-27T14:29:01.344Z,23.43
2022-08-27T14:31:31.875Z,23.50
2022-08-27T14:34:02.609Z,23.48
2022-08-27T14:36:34.746Z,23.43
2022-08-27T14:39:09.105Z,23.34
2022-08-27T14:41:42.830Z,23.37
2022-08-27T14:44:15.144Z,23.42
2022-08-27T14:46:45.478Z,23.45
2022-08-27T14:49:25.127Z,23.34
2022-08-27T14:51:55.450Z,23.34
2022-08-27T14:54:29.150Z,23.58
2022-08-27T14:57:06.354Z,24.09
2022-08-27T14:59:36.802Z,24.44
2022-08-27T15:02:09.834Z,24.38
2022-08-27T15:04:40.835Z,24.19
2022-08-27T15:07:14.735Z,24.23
2022-08-27T15:09:48.201Z,24.16
2022-08-27T15:12:26.552Z,24.13
2022-08-27T15:14:57.337Z,23.99
2022-08-27T15:17:34.402Z,23.85
2022-08-27T15:20:08.377Z,23.73
2022-08-27T15:22:43.939Z,23.55
2022-08-27T15:25:18.530Z,23.38
2022-08-27T15:27:48.819Z,23.26
2022-08-27T15:30:21.302Z,23.23
2022-08-27T15:32:52.063Z,23.11
2022-08-27T15:35:26.971Z,23.03
2022-08-27T15:37:59.573Z,22.85
2022-08-27T15:40:36.425Z,22.74
2022-08-27T15:43:09.220Z,22.63
2022-08-27T15:45:39.526Z,22.52
2022-08-27T15:48:10.828Z,22.41
2022-08-27T15:50:41.498Z,22.39
2022-08-27T15:53:13.753Z,22.42
2022-08-27T15:55:47.694Z,22.31
2022-08-27T15:58:17.873Z,22.37
2022-08-27T16:00:49.334Z,22.35
2022-08-27T16:03:35.594Z,22.26
2022-08-27T16:06:07.583Z,22.24
2022-08-27T16:08:41.866Z,22.16
2022-08-27T16:11:15.152Z,22.18
2022-08-27T16:13:46.175Z,22.21
2022-08-27T16:16:18.254Z,22.17
2022-08-27T16:18:48.511Z,22.11
2022-08-27T16:21:18.812Z,22.16
2022-08-27T16:23:49.214Z,22.16
2022-08-27T16:26:22.179Z,22.11
2022-08-27T16:28:52.706Z,22.07
2022-08-27T16:31:23.140Z,22.11
2022-08-27T16:33:53.487Z,22.10
2022-08-27T16:36:23.679Z,22.10
2022-08-27T16:38:54.440Z,22.19
2022-08-27T16:41:27.522Z,22.15
2022-08-27T16:43:58.951Z,22.13
2022-08-27T16:46:29.154Z,22.10
2022-08-27T16:49:11.837Z,22.02
2022-08-27T16:51:43.644Z,22.02
2022-08-27T16:54:16.745Z,22.02
2022-08-27T16:56:49.830Z,21.94
2022-08-27T16:59:20.205Z,21.92
2022-08-27T17:01:53.220Z,21.82
2022-08-27T17:04:30.498Z,21.84
2022-08-27T17:07:03.765Z,21.76
2022-08-27T17:12:08.632Z,21.72
2022-08-27T17:14:39.594Z,21.75
2022-08-27T17:17:10.825Z,21.73
2022-08-27T17:19:41.139Z,21.74
2022-08-27T17:22:11.962Z,21.64
2022-08-27T17:24:42.147Z,21.65
2022-08-27T17:27:15.115Z,21.67
2022-08-27T17:29:45.255Z,21.69
2022-08-27T17:32:15.705Z,21.65
2022-08-27T17:34:46.303Z,21.59
2022-08-27T17:37:16.267Z,21.54
2022-08-27T17:39:49.166Z,21.57
2022-08-27T17:42:22.509Z,21.59
2022-08-27T17:44:52.624Z,21.52
2022-08-27T17:47:24.844Z,21.47
2022-08-27T17:49:56.236Z,21.46
2022-08-27T17:52:26.462Z,21.41
2022-08-27T17:54:58.731Z,21.35
2022-08-27T17:57:40.278Z,21.38
2022-08-27T18:00:14.946Z,21.37
2022-08-27T18:02:47.643Z,21.37
2022-08-27T18:05:20.644Z,21.37
2022-08-27T18:07:51.056Z,21.38
2022-08-27T18:10:26.923Z,21.46
2022-08-27T18:13:01.095Z,21.45
2022-08-27T18:15:34.342Z,21.45
2022-08-27T18:18:05.276Z,21.40
2022-08-27T18:20:37.170Z,21.30
2022-08-27T18:23:11.046Z,21.23
2022-08-27T18:25:42.672Z,21.23
2022-08-27T18:28:17.062Z,21.23
2022-08-27T18:30:49.344Z,21.18
2022-08-27T18:33:19.769Z,21.15
2022-08-27T18:35:49.996Z,21.16
2022-08-27T18:38:22.048Z,21.14
2022-08-27T18:40:53.267Z,21.16
2022-08-27T18:43:34.714Z,21.18
2022-08-27T18:46:06.142Z,21.24
2022-08-27T18:48:37.403Z,21.26
2022-08-27T18:51:11.774Z,21.25
2022-08-27T18:53:43.013Z,21.28
2022-08-27T18:56:17.229Z,21.32
2022-08-27T18:58:51.827Z,21.32
2022-08-27T19:01:27.932Z,21.33
2022-08-27T19:03:59.921Z,21.37
2022-08-27T19:06:30.191Z,21.39
2022-08-27T19:09:00.512Z,21.38
2022-08-27T19:11:31.514Z,21.37
2022-08-27T19:14:04.299Z,21.35
2022-08-27T19:16:44.961Z,21.36
2022-08-27T19:19:16.503Z,21.32
2022-08-27T19:21:51.390Z,21.36
2022-08-27T19:24:22.556Z,21.32
2022-08-27T19:26:53.714Z,21.27
2022-08-27T19:29:26.526Z,21.30
2022-08-27T19:31:56.834Z,21.32
2022-08-27T19:34:27.056Z,21.28
2022-08-27T19:37:05.568Z,21.24
2022-08-27T19:39:37.284Z,21.20
2022-08-27T19:42:08.780Z,21.19
2022-08-27T19:44:41.636Z,21.17
2022-08-27T19:47:14.297Z,21.02
2022-08-27T19:49:46.417Z,21.07
2022-08-27T19:52:16.657Z,21.07
2022-08-27T19:55:12.110Z,21.04
2022-08-27T19:57:37.888Z,21.09
2022-08-27T20:00:15.083Z,21.03
2022-08-27T20:02:45.308Z,21.05
2022-08-27T20:05:18.294Z,21.06
2022-08-27T20:07:49.769Z,21.04
2022-08-27T20:10:19.998Z,21.00
2022-08-27T20:12:52.080Z,20.98
2022-08-27T20:15:25.847Z,20.99
2022-08-27T20:17:59.430Z,20.98
2022-08-27T20:20:31.716Z,21.09
2022-08-27T20:23:02.945Z,21.07
2022-08-27T20:25:34.280Z,21.04
2022-08-27T20:28:28.289Z,21.05
2022-08-27T20:30:59.620Z,21.04
2022-08-27T20:33:29.961Z,21.09
2022-08-27T20:36:03.117Z,21.10
2022-08-27T20:38:33.521Z,21.07
2022-08-27T20:41:04.135Z,21.06
2022-08-27T20:43:34.110Z,21.03
2022-08-27T20:46:07.420Z,21.09
2022-08-27T20:48:41.266Z,21.11
2022-08-27T20:51:11.997Z,21.17
2022-08-27T20:53:42.212Z,21.19
2022-08-27T20:56:12.463Z,21.19
2022-08-27T20:58:55.150Z,21.25
2022-08-27T21:01:28.167Z,21.21
2022-08-27T21:04:00.737Z,21.19
2022-08-27T21:06:33.380Z,21.21
2022-08-27T21:09:03.897Z,21.22
2022-08-27T21:11:34.165Z,21.19
2022-08-27T21:14:04.776Z,21.16
2022-08-27T21:16:39.189Z,21.22
2022-08-27T21:19:09.402Z,21.27
2022-08-27T21:21:39.613Z,21.31
2022-08-27T21:24:10.021Z,21.32
2022-08-27T21:26:40.397Z,21.35
2022-08-27T21:29:10.579Z,21.33
2022-08-27T21:31:43.654Z,21.30
2022-08-27T21:34:13.964Z,21.29
2022-08-27T21:36:44.152Z,21.22
2022-08-27T21:39:14.375Z,21.18
2022-08-27T21:41:44.595Z,21.07
2022-08-27T21:44:14.809Z,21.00
2022-08-27T21:46:47.635Z,21.03
2022-08-27T21:49:17.929Z,20.99
2022-08-27T21:51:48.138Z,20.98
2022-08-27T21:54:18.485Z,20.96
2022-08-27T21:56:49.082Z,20.98
2022-08-27T21:59:20.086Z,20.95
2022-08-27T22:02:00.236Z,20.88
2022-08-27T22:04:32.175Z,20.86
2022-08-27T22:07:02.355Z,20.83
2022-08-27T22:09:32.514Z,20.76
2022-08-27T22:12:03.346Z,20.77
2022-08-27T22:14:33.827Z,20.77
2022-08-27T22:17:06.973Z,20.73
2022-08-27T22:19:37.192Z,20.71
2022-08-27T22:22:07.668Z,20.70
2022-08-27T22:24:37.859Z,20.75
2022-08-27T22:27:08.446Z,20.79
2022-08-27T22:29:38.824Z,20.85
2022-08-27T22:32:11.667Z,20.81
2022-08-27T22:34:42.176Z,20.77
2022-08-27T22:37:12.413Z,20.73
2022-08-27T22:39:42.707Z,20.76
2022-08-27T22:42:15.319Z,20.65
2022-08-27T22:44:48.316Z,20.63
2022-08-27T22:47:21.248Z,20.67
2022-08-27T22:49:52.816Z,20.68
2022-08-27T22:52:28.308Z,20.65
2022-08-27T22:54:58.709Z,20.68
2022-08-27T22:57:29.488Z,20.67
2022-08-27T23:00:00.741Z,20.71
2022-08-27T23:02:33.482Z,20.63
2022-08-27T23:05:06.626Z,20.64
2022-08-27T23:07:37.690Z,20.61
2022-08-27T23:10:10.387Z,20.57
2022-08-27T23:12:40.896Z,20.56
2022-08-27T23:15:18.606Z,20.59
2022-08-27T23:17:51.876Z,20.60
2022-08-27T23:20:23.889Z,20.50
2022-08-27T23:22:55.862Z,20.49
2022-08-27T23:25:40.871Z,20.41
2022-08-27T23:28:15.407Z,20.38
2022-08-27T23:30:47.190Z,20.36
2022-08-27T23:33:20.180Z,20.28
2022-08-27T23:35:51.912Z,20.28
2022-08-27T23:38:25.076Z,20.22
2022-08-27T23:40:55.996Z,20.28
2022-08-27T23:43:26.603Z,20.21
2022-08-27T23:45:57.433Z,20.21
2022-08-27T23:48:30.606Z,20.19
2022-08-27T23:51:00.857Z,20.15
2022-08-27T23:53:31.055Z,20.21
2022-08-27T23:56:01.229Z,20.22
2022-08-27T23:58:31.565Z,20.24
